Time;durP1;ratioP1;P1;durP2;ratioP2;P2;SDS_P1;SDS_P2;PMS_P1;PMS_P2;Temp;Humidity;BMP_temperature;BMP_pressure;BME280_temperature;BME280_humidity;BME280_pressure;Samples;Min_cycle;Max_cycle;Signal;HPM_P1;HPM_P2
2022/09/13 00:01:26;;;;;;;13.00;8.40;;;9.10;99.90;8.50;100188;;;;553475;254;24190;-77
2022/09/13 00:03:54;;;;;;;13.20;8.47;;;9.10;99.90;8.50;100190;;;;550635;256;24275;-76
2022/09/13 00:06:22;;;;;;;12.10;7.77;;;9.10;99.90;8.50;100184;;;;546163;259;24185;-78
2022/09/13 00:08:53;;;;;;;12.73;8.00;;;9.10;99.90;8.50;100181;;;;546074;259;24185;-78
2022/09/13 00:11:21;;;;;;;9.10;7.80;;;9.10;99.90;8.40;100173;;;;545928;259;24251;-77
2022/09/13 00:13:53;;;;;;;10.37;7.63;;;9.10;99.90;8.40;100176;;;;545677;258;24234;-77
2022/09/13 00:16:17;;;;;;;12.57;7.50;;;9.00;99.90;8.40;100176;;;;544961;259;24236;-75
2022/09/13 00:18:48;;;;;;;10.10;7.03;;;9.00;99.90;8.40;100174;;;;545900;259;24222;-77
2022/09/13 00:21:13;;;;;;;9.00;7.40;;;9.00;99.90;8.40;100165;;;;555119;254;24195;-76
2022/09/13 00:23:44;;;;;;;9.67;7.23;;;9.00;99.90;8.30;100161;;;;545885;259;24164;-77
2022/09/13 00:26:15;;;;;;;10.03;7.27;;;9.00;99.90;8.30;100163;;;;551970;255;24176;-76
2022/09/13 00:28:44;;;;;;;9.97;7.37;;;8.90;99.90;8.30;100159;;;;546066;259;24210;-77
2022/09/13 00:31:10;;;;;;;10.07;7.90;;;8.90;99.90;8.30;100156;;;;553467;255;24173;-77
2022/09/13 00:33:38;;;;;;;10.90;7.20;;;8.90;99.90;8.20;100157;;;;552163;255;24195;-76
2022/09/13 00:36:10;;;;;;;12.67;7.70;;;8.80;99.90;8.20;100157;;;;552444;255;24233;-76
2022/09/13 00:38:35;;;;;;;10.67;7.80;;;8.80;99.90;8.20;100150;;;;553282;255;24204;-76
2022/09/13 00:41:06;;;;;;;13.87;7.87;;;8.80;99.90;8.20;100156;;;;556646;253;24154;-76
2022/09/13 00:43:52;;;;;;;11.10;7.63;;;8.80;99.90;8.10;100147;;;;561998;250;24166;-76
2022/09/13 00:46:41;;;;;;;10.70;8.23;;;8.80;99.90;8.10;100142;;;;561728;254;24178;-77
2022/09/13 00:49:14;;;;;;;9.23;7.33;;;8.70;99.90;8.10;100144;;;;562654;255;24158;-76
2022/09/13 00:51:42;;;;;;;15.20;10.57;;;8.70;99.90;8.10;100135;;;;557391;251;35746;-79
2022/09/13 00:54:14;;;;;;;16.83;8.03;;;8.70;99.90;8.10;100138;;;;555694;254;24175;-77
2022/09/13 00:56:40;;;;;;;7.77;6.60;;;8.70;99.90;8.10;100137;;;;553562;259;24214;-77
2022/09/13 00:59:11;;;;;;;10.57;6.87;;;8.70;99.90;8.00;100127;;;;553540;255;24196;-79
2022/09/13 01:01:41;;;;;;;8.30;6.70;;;8.70;99.90;8.00;100126;;;;563344;251;24250;-76
2022/09/13 01:04:09;;;;;;;12.98;9.88;;;8.70;99.90;8.00;100128;;;;540841;254;35791;-76
2022/09/13 01:06:41;;;;;;;8.43;7.53;;;8.70;99.90;8.00;100120;;;;566731;250;24135;-76
2022/09/13 01:09:09;;;;;;;9.93;7.63;;;8.70;99.90;8.00;100121;;;;557854;254;24182;-80
2022/09/13 01:11:46;;;;;;;17.20;11.73;;;8.60;99.90;8.00;100119;;;;557032;254;24149;-80
2022/09/13 01:14:14;;;;;;;19.57;13.30;;;8.60;99.90;8.00;100113;;;;557377;254;24151;-80
2022/09/13 01:16:42;;;;;;;21.73;16.43;;;8.60;99.90;8.00;100113;;;;557473;254;24193;-79
2022/09/13 01:19:09;;;;;;;29.57;20.27;;;8.70;99.90;8.00;100113;;;;556984;254;24151;-77
2022/09/13 01:21:46;;;;;;;27.33;20.10;;;8.70;99.90;8.00;100116;;;;556751;254;24134;-76
2022/09/13 01:24:32;;;;;;;27.43;19.90;;;8.70;99.90;8.00;100111;;;;556636;254;24191;-76
2022/09/13 01:27:28;;;;;;;23.53;18.77;;;8.60;99.90;7.90;100122;;;;556231;254;24160;-76
2022/09/13 01:30:07;;;;;;;19.13;16.63;;;8.60;99.90;7.90;100113;;;;556266;253;24198;-77
2022/09/13 01:33:00;;;;;;;21.23;16.67;;;8.60;99.90;7.90;100109;;;;557674;254;24200;-78
2022/09/13 01:35:49;;;;;;;24.33;20.90;;;8.60;99.90;7.90;100101;;;;560694;254;35760;-76
2022/09/13 01:38:32;;;;;;;14.47;11.83;;;8.60;99.90;8.00;100097;;;;557180;254;24148;-76
2022/09/13 01:41:22;;;;;;;16.17;10.17;;;8.60;99.90;8.00;100094;;;;557070;254;24157;-76
2022/09/13 01:43:56;;;;;;;10.73;8.60;;;8.60;99.90;8.00;100092;;;;556168;254;24199;-76
2022/09/13 01:46:26;;;;;;;9.20;6.80;;;8.60;99.90;7.90;100086;;;;553546;255;24159;-77
2022/09/13 01:49:00;;;;;;;7.70;6.07;;;8.60;99.90;7.90;100086;;;;550145;256;24212;-77
2022/09/13 01:51:33;;;;;;;9.63;5.83;;;8.60;99.90;7.90;100086;;;;554921;259;24214;-77
2022/09/13 01:54:19;;;;;;;5.50;5.00;;;8.50;99.90;7.90;100089;;;;554213;255;24137;-78
2022/09/13 01:57:11;;;;;;;6.40;4.97;;;8.60;99.90;7.90;100096;;;;563941;254;24182;-77
2022/09/13 01:59:57;;;;;;;7.37;5.23;;;8.60;99.90;7.90;100089;;;;545508;259;24145;-78
2022/09/13 02:02:22;;;;;;;6.90;4.73;;;8.60;99.90;7.90;100086;;;;554559;254;24168;-76
2022/09/13 02:04:53;;;;;;;8.37;5.13;;;8.50;99.90;7.90;100095;;;;553006;253;24144;-76
2022/09/13 02:07:29;;;;;;;7.40;5.10;;;8.50;99.90;7.90;100080;;;;562985;254;24132;-77
2022/09/13 02:10:00;;;;;;;5.13;4.63;;;8.50;99.90;7.90;100084;;;;552800;259;24257;-76
2022/09/13 02:12:28;;;;;;;5.00;4.50;;;8.50;99.90;7.90;100081;;;;545323;259;24242;-76
2022/09/13 02:15:02;;;;;;;6.37;4.53;;;8.50;99.90;7.90;100091;;;;545281;259;24233;-79
2022/09/13 02:17:30;;;;;;;5.20;4.57;;;8.50;99.90;7.90;100084;;;;546116;258;24116;-79
2022/09/13 02:20:01;;;;;;;5.67;5.00;;;8.60;99.90;8.00;100079;;;;556143;254;24189;-76
2022/09/13 02:22:31;;;;;;;5.27;4.77;;;8.60;99.90;7.90;100078;;;;554179;255;24209;-79
2022/09/13 02:24:59;;;;;;;6.80;4.00;;;8.60;99.90;7.90;100077;;;;554445;249;24153;-77
2022/09/13 02:27:27;;;;;;;4.77;4.33;;;8.50;99.90;7.90;100074;;;;555282;253;24156;-77
2022/09/13 02:29:55;;;;;;;5.10;4.30;;;8.60;99.90;7.90;100064;;;;555317;255;24185;-76
2022/09/13 02:32:26;;;;;;;5.43;4.20;;;8.50;99.90;7.90;100064;;;;555133;255;24144;-77
2022/09/13 02:34:55;;;;;;;4.87;3.97;;;8.50;99.90;7.90;100059;;;;555358;255;24132;-76
2022/09/13 02:37:22;;;;;;;4.40;3.67;;;8.50;99.90;7.80;100051;;;;554704;257;24168;-80
2022/09/13 02:39:50;;;;;;;5.57;3.87;;;8.50;99.90;7.80;100054;;;;554155;259;24157;-79
2022/09/13 02:42:20;;;;;;;4.40;4.00;;;8.50;99.90;7.80;100038;;;;554891;259;24119;-77
2022/09/13 02:44:51;;;;;;;4.03;3.63;;;8.50;99.90;7.80;100034;;;;555311;254;24135;-79
2022/09/13 02:47:34;;;;;;;4.97;3.40;;;8.50;99.90;7.80;100024;;;;555641;254;24205;-76
2022/09/13 02:50:19;;;;;;;4.40;3.80;;;8.50;99.90;7.90;100026;;;;560137;247;24188;-78
2022/09/13 02:53:24;;;;;;;4.13;3.73;;;8.50;99.90;7.90;100016;;;;554162;256;24193;-76
2022/09/13 02:56:26;;;;;;;5.10;4.60;;;8.50;99.90;7.90;100014;;;;555000;252;24135;-78
2022/09/13 02:59:05;;;;;;;4.90;3.73;;;8.50;99.90;7.90;100013;;;;554964;252;24100;-78
2022/09/13 03:01:33;;;;;;;7.90;5.90;;;8.60;99.90;7.90;99998;;;;542260;252;35406;-77
2022/09/13 03:04:02;;;;;;;6.37;4.17;;;8.50;99.90;7.80;99996;;;;555284;257;24176;-76
2022/09/13 03:06:32;;;;;;;4.40;4.00;;;8.50;99.90;7.80;99987;;;;557440;254;24161;-77
2022/09/13 03:08:57;;;;;;;4.97;4.43;;;8.50;99.90;7.80;99977;;;;545855;259;24197;-78
2022/09/13 03:11:33;;;;;;;5.40;4.47;;;8.40;99.90;7.80;99973;;;;546597;249;24173;-79
2022/09/13 03:14:25;;;;;;;5.77;4.47;;;8.50;99.90;7.80;99965;;;;562973;251;24141;-77
2022/09/13 03:17:29;;;;;;;6.17;4.30;;;8.40;99.90;7.80;99970;;;;563233;250;24186;-76
2022/09/13 03:20:08;;;;;;;5.00;4.47;;;8.40;99.90;7.80;99966;;;;561087;254;24256;-76
2022/09/13 03:23:19;;;;;;;5.23;4.17;;;8.40;99.90;7.80;99965;;;;562426;254;24187;-76
2022/09/13 03:26:08;;;;;;;6.70;6.10;;;8.40;99.90;7.80;99959;;;;557779;254;35609;-77
2022/09/13 03:29:03;;;;;;;5.00;4.50;;;8.40;99.90;7.80;99963;;;;563555;254;24153;-79
2022/09/13 03:31:52;;;;;;;4.93;4.43;;;8.40;99.90;7.80;99958;;;;562812;254;24182;-79
2022/09/13 03:34:33;;;;;;;9.90;7.00;;;8.50;99.90;7.80;99952;;;;557946;253;35603;-76
2022/09/13 03:37:16;;;;;;;5.70;5.07;;;8.50;99.90;7.80;99949;;;;554252;249;24192;-76
2022/09/13 03:39:59;;;;;;;6.07;4.43;;;8.50;99.90;7.80;99948;;;;562310;253;24258;-75
2022/09/13 03:42:42;;;;;;;4.80;3.90;;;8.50;99.90;7.80;99933;;;;562393;249;25254;-76
2022/09/13 03:45:10;;;;;;;9.07;5.10;;;8.50;99.90;7.80;99946;;;;562589;252;24190;-76
2022/09/13 03:47:38;;;;;;;5.53;4.30;;;8.50;99.90;7.90;99943;;;;553010;255;24170;-76
2022/09/13 03:50:06;;;;;;;5.73;5.07;;;8.50;99.90;7.90;99958;;;;561277;254;24156;-76
2022/09/13 03:52:34;;;;;;;6.10;5.03;;;8.50;99.90;7.90;99950;;;;562182;251;24165;-76
2022/09/13 03:55:02;;;;;;;10.57;5.40;;;8.50;99.90;7.90;99947;;;;562621;254;24142;-80
2022/09/13 03:57:30;;;;;;;5.27;4.60;;;8.50;99.90;8.00;99948;;;;553445;255;24145;-75
2022/09/13 03:59:58;;;;;;;8.10;5.13;;;8.60;99.90;8.00;99948;;;;553283;255;24204;-77
2022/09/13 04:02:25;;;;;;;6.43;5.40;;;8.60;99.90;8.00;99943;;;;562191;254;24204;-79
2022/09/13 04:04:53;;;;;;;8.87;7.97;;;8.60;99.90;8.10;99949;;;;549907;254;46553;-80
2022/09/13 04:07:24;;;;;;;8.53;6.00;;;8.70;99.90;8.10;99948;;;;553919;254;24194;-81
2022/09/13 04:09:52;;;;;;;6.77;4.83;;;8.70;99.90;8.20;99933;;;;553762;254;24169;-78
2022/09/13 04:12:20;;;;;;;10.77;8.10;;;8.70;99.90;8.30;99932;;;;548929;255;35677;-77
2022/09/13 04:14:48;;;;;;;6.33;5.63;;;8.80;99.90;8.40;99930;;;;552998;255;24173;-77
2022/09/13 04:17:16;;;;;;;5.70;5.20;;;8.90;99.90;8.50;99923;;;;552396;255;24139;-77
2022/09/13 04:19:45;;;;;;;5.80;4.60;;;9.10;99.90;8.60;99921;;;;552520;255;24151;-76
2022/09/13 04:22:16;;;;;;;5.50;4.67;;;9.10;99.90;8.60;99920;;;;553186;255;24182;-76
2022/09/13 04:24:44;;;;;;;6.27;5.30;;;9.20;99.90;8.70;99914;;;;551766;255;24180;-76
2022/09/13 04:27:09;;;;;;;8.43;5.37;;;9.20;99.90;8.80;99910;;;;551844;255;24158;-75
2022/09/13 04:29:36;;;;;;;6.97;5.90;;;9.30;99.90;8.80;99907;;;;552306;255;24151;-77
2022/09/13 04:32:04;;;;;;;6.60;5.80;;;9.40;99.90;8.90;99908;;;;552513;254;24165;-75
2022/09/13 04:34:33;;;;;;;7.90;6.40;;;9.40;99.90;8.90;99910;;;;561610;250;24201;-76
2022/09/13 04:37:00;;;;;;;8.70;6.53;;;9.50;99.90;8.90;99904;;;;552300;255;24136;-76
2022/09/13 04:39:28;;;;;;;6.90;6.03;;;9.50;99.90;9.00;99907;;;;552283;254;24186;-77
2022/09/13 04:41:56;;;;;;;8.60;5.50;;;9.60;99.90;9.00;99910;;;;553191;255;24143;-76
2022/09/13 04:44:24;;;;;;;7.97;5.20;;;9.60;99.90;9.10;99906;;;;553369;255;24388;-76
2022/09/13 04:46:52;;;;;;;10.80;4.97;;;9.70;99.90;9.20;99916;;;;553258;255;24234;-77
2022/09/13 04:49:20;;;;;;;9.47;5.43;;;9.70;99.90;9.30;99914;;;;553575;255;24145;-77
2022/09/13 04:51:48;;;;;;;6.67;5.30;;;9.80;99.90;9.30;99903;;;;553341;255;24170;-80
2022/09/13 04:54:16;;;;;;;5.60;4.93;;;9.90;99.90;9.40;99899;;;;553562;254;24142;-80
2022/09/13 04:56:46;;;;;;;7.60;5.00;;;10.00;99.90;9.50;99900;;;;562703;252;24181;-80
2022/09/13 04:59:11;;;;;;;5.50;4.93;;;10.00;99.90;9.70;99901;;;;554185;255;24172;-80
2022/09/13 05:01:40;;;;;;;4.93;4.43;;;10.20;99.90;9.80;99900;;;;554375;255;24177;-79
2022/09/13 05:04:10;;;;;;;6.13;4.17;;;10.30;99.90;10.00;99901;;;;562855;254;24135;-77
2022/09/13 05:06:35;;;;;;;8.67;4.47;;;10.40;99.90;10.10;99902;;;;554322;255;24186;-76
2022/09/13 05:09:06;;;;;;;4.23;3.93;;;10.60;99.90;10.30;99901;;;;553787;255;24138;-77
2022/09/13 05:11:32;;;;;;;5.10;4.57;;;10.90;99.90;10.50;99893;;;;553914;255;24169;-78
2022/09/13 05:14:04;;;;;;;5.43;4.70;;;11.10;99.90;10.60;99902;;;;557733;255;24188;-79
2022/09/13 05:16:28;;;;;;;6.20;3.93;;;11.00;99.90;10.70;99896;;;;553291;255;24208;-81
2022/09/13 05:18:57;;;;;;;5.97;4.33;;;11.20;99.90;10.90;99902;;;;562409;255;24136;-79
2022/09/13 05:21:27;;;;;;;6.53;3.97;;;11.40;99.90;11.10;99888;;;;562694;254;24162;-80
2022/09/13 05:23:57;;;;;;;5.67;4.03;;;11.70;99.90;11.30;99894;;;;562704;251;24167;-80
2022/09/13 05:26:21;;;;;;;5.07;4.10;;;11.70;99.90;11.90;99886;;;;553673;255;24144;-76
2022/09/13 05:28:49;;;;;;;4.40;4.03;;;12.20;99.90;13.20;99887;;;;562149;251;24184;-80
2022/09/13 05:31:16;;;;;;;7.33;4.97;;;13.30;99.90;14.30;99892;;;;554865;255;24111;-80
2022/09/13 05:33:48;;;;;;;4.83;3.83;;;15.00;99.90;14.70;99897;;;;562729;252;24197;-76
2022/09/13 05:36:13;;;;;;;4.28;3.05;;;15.00;99.90;15.60;99892;;;;549560;255;35587;-78
2022/09/13 05:38:41;;;;;;;2.70;2.50;;;15.80;99.90;16.10;99893;;;;562022;250;24126;-80
2022/09/13 05:41:09;;;;;;;5.17;2.67;;;16.50;99.90;16.30;99889;;;;562688;250;24166;-77
2022/09/13 05:43:37;;;;;;;4.03;2.23;;;16.80;99.90;16.20;99883;;;;561758;250;24199;-76
2022/09/13 05:46:07;;;;;;;3.80;1.93;;;16.90;99.90;15.90;99873;;;;561735;254;24165;-77
2022/09/13 05:48:39;;;;;;;1.83;1.53;;;16.70;99.90;15.60;99877;;;;553349;255;24210;-77
2022/09/13 05:51:15;;;;;;;4.30;2.47;;;16.40;99.90;15.30;99867;;;;561191;254;24160;-77
2022/09/13 05:53:43;;;;;;;2.63;1.87;;;16.10;99.90;15.00;99859;;;;562234;254;24189;-76
2022/09/13 05:56:11;;;;;;;3.50;2.10;;;15.80;99.90;14.80;99861;;;;562820;249;24169;-77
2022/09/13 05:58:42;;;;;;;4.03;2.10;;;15.50;99.90;14.70;99852;;;;554218;255;24218;-77
2022/09/13 06:01:09;;;;;;;3.77;2.10;;;15.40;99.90;14.80;99849;;;;553228;255;24139;-77
2022/09/13 06:03:35;;;;;;;4.90;1.80;;;15.40;99.90;14.80;99850;;;;552690;255;24193;-76
2022/09/13 06:06:05;;;;;;;2.60;1.90;;;15.40;99.90;15.00;99852;;;;552800;254;24227;-76
2022/09/13 06:08:33;;;;;;;5.80;2.07;;;15.50;99.90;15.40;99851;;;;555092;254;24158;-76
2022/09/13 06:10:58;;;;;;;3.83;1.90;;;15.80;99.90;16.20;99858;;;;558976;252;24192;-76
2022/09/13 06:13:26;;;;;;;4.33;2.43;;;16.50;99.90;17.40;99848;;;;559694;252;24133;-80
2022/09/13 06:15:54;;;;;;;2.33;1.70;;;17.50;99.90;18.50;99855;;;;550138;256;24218;-77
2022/09/13 06:18:25;;;;;;;2.43;2.00;;;18.60;99.90;18.90;99849;;;;569142;251;24146;-76
2022/09/13 06:20:53;;;;;;;1.90;1.80;;;19.20;99.90;19.00;99850;;;;550926;256;24228;-76
2022/09/13 06:23:18;;;;;;;1.97;1.87;;;19.50;99.90;19.10;99842;;;;566031;249;24206;-76
2022/09/13 06:25:45;;;;;;;4.40;1.60;;;19.60;99.90;19.00;99839;;;;563311;251;24123;-76
2022/09/13 06:28:13;;;;;;;6.43;1.83;;;19.60;99.90;19.20;99842;;;;555332;254;24166;-76
2022/09/13 06:30:41;;;;;;;3.33;1.70;;;19.60;99.90;19.60;99845;;;;555181;254;24177;-77
2022/09/13 06:33:09;;;;;;;2.40;2.03;;;20.00;99.90;20.30;99848;;;;555327;254;24149;-77
2022/09/13 06:35:37;;;;;;;5.57;2.13;;;20.60;99.90;20.90;99834;;;;553751;255;23089;-82
2022/09/13 06:38:05;;;;;;;3.27;1.63;;;21.10;99.90;21.30;99843;;;;553693;259;24159;-78
2022/09/13 06:40:33;;;;;;;3.83;1.80;;;21.60;99.90;21.50;99850;;;;545249;259;24159;-75
2022/09/13 06:43:01;;;;;;;1.93;1.50;;;21.90;99.90;21.50;99842;;;;555291;254;23208;-75
2022/09/13 06:45:29;;;;;;;4.80;2.37;;;22.10;99.90;21.60;99841;;;;555325;254;23144;-76
2022/09/13 06:47:58;;;;;;;3.40;1.83;;;22.10;99.90;21.70;99834;;;;555248;254;24132;-76
2022/09/13 06:50:25;;;;;;;4.20;2.10;;;22.10;99.90;21.50;99833;;;;555278;254;24127;-77
2022/09/13 06:52:53;;;;;;;5.43;2.17;;;22.00;99.90;21.20;99832;;;;555207;254;23152;-76
2022/09/13 06:55:25;;;;;;;6.03;2.30;;;21.60;99.90;21.10;99837;;;;545464;259;24165;-80
2022/09/13 06:57:50;;;;;;;6.47;2.43;;;21.60;99.90;21.00;99836;;;;544911;259;23204;-77
2022/09/13 07:00:18;;;;;;;5.47;1.63;;;21.50;99.90;20.80;99837;;;;556073;254;24180;-78
2022/09/13 07:02:46;;;;;;;2.10;1.77;;;21.30;99.90;20.60;99838;;;;555947;254;24141;-78
2022/09/13 07:05:15;;;;;;;3.70;2.13;;;21.10;99.90;20.30;99833;;;;547762;255;24307;-79
2022/09/13 07:07:41;;;;;;;3.57;1.83;;;20.80;99.90;20.20;99833;;;;557352;254;24160;-76
2022/09/13 07:10:09;;;;;;;5.20;2.40;;;20.60;99.90;20.00;99845;;;;555440;255;24194;-76
2022/09/13 07:12:37;;;;;;;1.93;1.73;;;20.50;99.90;19.90;99827;;;;555484;255;24136;-80
2022/09/13 07:15:08;;;;;;;5.47;1.93;;;20.40;99.90;19.70;99839;;;;555042;255;24154;-76
2022/09/13 07:17:33;;;;;;;3.93;2.10;;;20.20;99.90;19.60;99820;;;;557795;254;24206;-79
2022/09/13 07:20:05;;;;;;;2.13;1.90;;;20.10;99.90;19.70;99832;;;;551875;258;24153;-74
2022/09/13 07:22:30;;;;;;;3.70;2.33;;;20.10;99.90;19.80;99819;;;;546399;259;24181;-77
2022/09/13 07:24:59;;;;;;;4.57;2.43;;;20.20;99.90;20.00;99831;;;;557551;254;23171;-77
2022/09/13 07:27:25;;;;;;;3.30;2.60;;;20.40;99.90;20.10;99828;;;;564607;251;24191;-78
2022/09/13 07:29:54;;;;;;;8.40;2.57;;;20.50;99.90;20.10;99831;;;;556109;254;23167;-77
2022/09/13 07:32:21;;;;;;;6.23;2.77;;;20.50;99.90;20.00;99830;;;;555788;254;23152;-76
2022/09/13 07:34:49;;;;;;;7.97;2.77;;;20.50;99.90;20.00;99825;;;;554351;259;24126;-77
2022/09/13 07:37:22;;;;;;;8.33;3.20;;;20.40;99.90;20.00;99830;;;;557515;252;24145;-76
2022/09/13 07:39:46;;;;;;;6.70;3.40;;;20.40;99.90;20.00;99826;;;;565387;254;24135;-77
2022/09/13 07:42:14;;;;;;;7.03;2.93;;;20.50;99.90;20.10;99821;;;;555459;254;23165;-75
2022/09/13 07:44:42;;;;;;;6.27;2.60;;;20.50;99.90;20.50;99821;;;;554908;254;24166;-75
2022/09/13 07:47:11;;;;;;;8.30;2.90;;;21.20;99.90;20.90;99819;;;;554922;254;24142;-74
2022/09/13 07:49:39;;;;;;;5.47;2.37;;;21.20;99.90;21.20;99817;;;;555159;254;23167;-77
2022/09/13 07:52:07;;;;;;;3.10;2.37;;;21.50;99.90;21.00;99825;;;;545877;259;24068;-76
2022/09/13 07:54:37;;;;;;;8.00;2.53;;;21.50;99.90;20.80;99811;;;;545075;259;24165;-75
2022/09/13 07:57:04;;;;;;;5.67;2.90;;;21.30;99.90;20.40;99798;;;;545081;259;24139;-75
2022/09/13 07:59:33;;;;;;;4.93;2.60;;;20.80;99.90;20.10;99799;;;;545532;259;23142;-75
2022/09/13 08:02:01;;;;;;;5.20;3.33;;;20.80;99.90;19.90;99798;;;;555017;254;24154;-74
2022/09/13 08:04:29;;;;;;;3.13;2.83;;;20.50;99.90;19.90;99796;;;;555183;254;23175;-75
2022/09/13 08:06:57;;;;;;;3.50;3.17;;;20.40;99.90;20.00;99799;;;;555332;254;23148;-76
2022/09/13 08:09:26;;;;;;;3.20;2.70;;;20.40;99.90;20.00;99797;;;;555775;254;23144;-75
2022/09/13 08:11:54;;;;;;;9.70;3.20;;;20.40;99.90;20.00;99800;;;;555943;254;24172;-75
2022/09/13 08:14:22;;;;;;;3.17;2.77;;;20.50;99.90;20.00;99789;;;;556109;254;24187;-76
2022/09/13 08:16:50;;;;;;;3.43;3.03;;;20.50;99.90;19.90;99786;;;;546942;258;24155;-75
2022/09/13 08:19:17;;;;;;;3.43;3.00;;;20.40;99.90;19.80;99779;;;;547227;258;24217;-75
2022/09/13 08:21:45;;;;;;;7.20;3.33;;;20.30;99.90;19.50;99770;;;;546739;259;24194;-76
2022/09/13 08:24:20;;;;;;;10.47;3.20;;;20.10;99.90;19.30;99761;;;;563075;255;24166;-75
2022/09/13 08:26:50;;;;;;;11.57;3.37;;;19.90;99.90;19.10;99763;;;;563163;250;24138;-76
2022/09/13 08:29:17;;;;;;;4.07;3.13;;;19.70;99.90;18.90;99767;;;;563543;254;24182;-76
2022/09/13 08:31:42;;;;;;;5.30;3.87;;;19.50;99.90;18.70;99759;;;;554583;255;24143;-77
2022/09/13 08:34:14;;;;;;;9.33;3.50;;;19.30;99.90;18.50;99757;;;;558058;255;24148;-74
2022/09/13 08:36:43;;;;;;;7.00;4.37;;;19.10;99.90;18.40;99751;;;;554739;255;24140;-77
2022/09/13 08:39:13;;;;;;;7.33;3.60;;;18.90;99.90;18.40;99745;;;;563283;254;24142;-77
2022/09/13 08:41:47;;;;;;;10.73;4.10;;;18.90;99.90;18.30;99740;;;;553896;255;24160;-77
2022/09/13 08:44:33;;;;;;;7.73;3.47;;;18.80;99.90;18.30;99738;;;;555105;254;24184;-76
2022/09/13 08:47:04;;;;;;;11.33;4.03;;;18.80;99.90;18.20;99735;;;;553910;255;24103;-76
2022/09/13 08:49:35;;;;;;;5.10;3.90;;;18.80;99.90;18.20;99744;;;;562934;255;24103;-76
2022/09/13 08:52:14;;;;;;;5.57;3.67;;;18.70;99.90;18.10;99734;;;;562350;255;24130;-75
2022/09/13 08:54:45;;;;;;;9.43;4.63;;;18.60;99.90;17.90;99728;;;;553695;255;24200;-75
2022/09/13 08:57:11;;;;;;;11.47;5.00;;;18.30;99.90;17.80;99722;;;;561667;251;24154;-74
2022/09/13 09:00:06;;;;;;;21.43;6.20;;;18.30;99.90;17.50;99725;;;;553272;255;24143;-75
2022/09/13 09:03:20;;;;;;;8.47;4.97;;;17.90;99.90;17.30;99726;;;;561397;252;24154;-76
2022/09/13 09:05:48;;;;;;;7.27;5.60;;;17.80;99.90;17.10;99719;;;;553679;254;24153;-75
2022/09/13 09:08:50;;;;;;;11.67;5.60;;;17.70;99.90;17.00;99721;;;;561471;250;24203;-75
2022/09/13 09:11:41;;;;;;;13.00;6.27;;;17.50;99.90;16.90;99724;;;;560536;255;24150;-75
2022/09/13 09:14:34;;;;;;;14.70;6.13;;;17.40;99.90;16.90;99727;;;;553519;254;24164;-76
2022/09/13 09:17:05;;;;;;;14.40;5.60;;;17.40;99.90;17.00;99720;;;;552231;255;24197;-75
2022/09/13 09:19:43;;;;;;;16.20;6.33;;;17.50;99.90;17.10;99718;;;;560573;251;24183;-75
2022/09/13 09:22:17;;;;;;;12.63;5.60;;;17.60;99.90;17.20;99727;;;;552957;255;24151;-76
2022/09/13 09:24:45;;;;;;;8.77;5.60;;;17.60;99.90;17.20;99725;;;;560917;255;24180;-76
2022/09/13 09:27:16;;;;;;;9.20;5.87;;;17.70;99.90;17.20;99718;;;;561612;251;24211;-75
2022/09/13 09:29:46;;;;;;;6.13;5.20;;;17.70;99.90;17.20;99716;;;;561947;254;24158;-75
2022/09/13 09:32:26;;;;;;;19.43;6.30;;;17.70;99.90;17.30;99699;;;;562344;251;24197;-76
2022/09/13 09:35:47;;;;;;;15.33;7.00;;;17.70;99.90;17.30;99704;;;;562457;254;24201;-75
2022/09/13 09:38:36;;;;;;;15.60;6.13;;;17.80;99.90;17.20;99708;;;;554590;254;24185;-77
2022/09/13 09:41:10;;;;;;;13.60;5.97;;;17.80;99.90;17.20;99705;;;;562633;254;24145;-74
2022/09/13 09:43:53;;;;;;;16.53;6.43;;;17.70;99.90;17.20;99710;;;;561748;255;24151;-79
2022/09/13 09:46:21;;;;;;;8.23;5.97;;;17.70;99.90;17.20;99711;;;;554620;255;24156;-75
2022/09/13 09:48:45;;;;;;;10.13;5.70;;;17.70;99.90;17.20;99703;;;;554558;255;24181;-76
2022/09/13 09:51:13;;;;;;;6.30;5.47;;;17.70;99.90;17.30;99699;;;;554772;255;24138;-76
2022/09/13 09:53:42;;;;;;;6.23;5.53;;;17.70;99.90;17.40;99691;;;;555173;252;24125;-80
2022/09/13 09:56:22;;;;;;;7.77;5.60;;;17.80;99.90;17.50;99685;;;;562823;252;24159;-77
2022/09/13 09:58:53;;;;;;;7.70;5.47;;;18.00;99.90;17.60;99687;;;;562989;251;24193;-78
2022/09/13 10:01:26;;;;;;;7.73;6.13;;;18.00;99.90;17.70;99677;;;;553969;255;24165;-78
2022/09/13 10:04:15;;;;;;;7.13;6.30;;;18.20;99.90;17.80;99678;;;;562268;246;24281;-81
2022/09/13 10:06:40;;;;;;;6.93;6.23;;;18.30;99.90;18.00;99672;;;;561405;255;24176;-75
2022/09/13 10:09:17;;;;;;;9.93;6.57;;;18.50;99.90;18.20;99664;;;;561894;251;24190;-75
2022/09/13 10:11:55;;;;;;;8.47;5.93;;;18.60;99.90;18.30;99658;;;;562765;249;24176;-76
2022/09/13 10:14:37;;;;;;;6.73;6.13;;;18.80;99.90;18.60;99654;;;;553805;255;24220;-81
2022/09/13 10:17:26;;;;;;;6.83;5.90;;;19.00;99.90;18.90;99641;;;;562172;251;24166;-77
2022/09/13 10:20:05;;;;;;;10.07;6.87;;;19.30;99.90;19.10;99630;;;;562393;251;24119;-76
2022/09/13 10:22:33;;;;;;;7.20;6.60;;;19.60;99.90;19.20;99634;;;;553864;255;24173;-75
2022/09/13 10:25:23;;;;;;;9.97;6.90;;;19.70;99.90;19.60;99632;;;;553830;254;24134;-76
2022/09/13 10:27:54;;;;;;;11.37;6.43;;;20.00;99.90;19.90;99634;;;;562815;255;24140;-80
2022/09/13 10:30:49;;;;;;;6.90;6.20;;;20.30;99.90;19.90;99631;;;;554691;255;24137;-75
2022/09/13 10:33:28;;;;;;;9.00;6.60;;;20.40;99.90;19.90;99636;;;;554821;255;24121;-79
2022/09/13 10:36:03;;;;;;;8.07;7.00;;;20.40;99.90;19.80;99625;;;;555043;255;24194;-77
2022/09/13 10:38:33;;;;;;;7.50;6.57;;;20.40;99.90;19.80;99622;;;;563231;252;24128;-76
2022/09/13 10:41:02;;;;;;;7.67;6.63;;;20.40;99.90;19.80;99621;;;;555693;255;24143;-79
2022/09/13 10:43:30;;;;;;;9.53;7.70;;;20.30;99.90;19.80;99602;;;;554724;255;24139;-76
2022/09/13 10:46:01;;;;;;;12.30;7.77;;;20.30;99.90;19.70;99604;;;;554039;255;24141;-74
2022/09/13 10:48:26;;;;;;;7.40;6.70;;;20.20;99.90;19.80;99587;;;;554653;255;24191;-75
2022/09/13 10:51:00;;;;;;;7.97;7.10;;;20.30;99.90;20.00;99583;;;;554502;254;24192;-75
2022/09/13 10:53:37;;;;;;;12.50;6.53;;;20.40;99.90;20.20;99589;;;;554335;254;24134;-76
2022/09/13 10:56:06;;;;;;;8.27;7.33;;;20.60;99.90;20.40;99592;;;;554167;255;24152;-75
2022/09/13 10:58:34;;;;;;;9.33;6.60;;;20.80;99.90;20.50;99582;;;;561132;251;24185;-75
2022/09/13 11:01:14;;;;;;;8.07;6.33;;;21.00;99.90;20.60;99578;;;;562364;254;24116;-77
2022/09/13 11:04:19;;;;;;;7.80;7.07;;;21.10;99.90;20.60;99578;;;;556621;255;23238;-76
2022/09/13 11:07:06;;;;;;;7.07;6.07;;;21.10;99.90;20.60;99577;;;;560514;251;24154;-76
2022/09/13 11:09:38;;;;;;;9.43;6.33;;;21.10;99.90;20.70;99577;;;;560194;255;24154;-75
2022/09/13 11:12:21;;;;;;;8.47;7.10;;;21.20;99.90;20.70;99571;;;;550174;255;23200;-75
2022/09/13 11:15:03;;;;;;;6.07;5.57;;;21.20;99.90;20.70;99568;;;;553816;255;24159;-75
2022/09/13 11:18:05;;;;;;;7.73;6.03;;;21.20;99.90;20.70;99571;;;;561342;255;24216;-74
2022/09/13 11:20:45;;;;;;;7.00;6.30;;;21.20;99.90;20.70;99573;;;;552765;255;24150;-75
2022/09/13 11:23:46;;;;;;;6.67;6.10;;;21.20;99.90;20.70;99574;;;;561795;251;23243;-77
2022/09/13 11:26:40;;;;;;;6.10;5.60;;;21.20;99.90;20.50;99572;;;;562106;254;24147;-76
2022/09/13 11:29:15;;;;;;;7.07;6.47;;;21.00;99.90;20.40;99575;;;;562023;254;24182;-75
2022/09/13 11:32:13;;;;;;;5.90;5.40;;;20.90;99.90;20.40;99561;;;;561223;252;23178;-74
2022/09/13 11:34:44;;;;;;;5.97;5.53;;;20.90;99.90;20.50;99562;;;;561730;251;23183;-75
2022/09/13 11:37:15;;;;;;;5.67;5.17;;;20.90;99.90;20.50;99550;;;;553281;255;24191;-76
2022/09/13 11:40:09;;;;;;;9.20;6.17;;;21.00;99.90;20.50;99550;;;;553550;255;23182;-77
2022/09/13 11:42:59;;;;;;;8.27;5.40;;;21.00;99.90;20.60;99548;;;;560820;255;23152;-76
2022/09/13 11:45:27;;;;;;;6.57;5.97;;;21.00;99.90;20.60;99547;;;;557289;255;24137;-78
2022/09/13 11:48:19;;;;;;;8.27;5.67;;;21.10;99.90;20.70;99545;;;;553282;255;24140;-79